sensor_id;sensor_type;location;lat;lon;timestamp;temperature;humidity
23495;DHT22;26107;50.832;2.950;2022-07-23T00:11:09;17.00;99.90
23495;DHT22;26107;50.832;2.950;2022-07-23T00:26:09;16.90;99.90
23495;DHT22;26107;50.832;2.950;2022-07-23T00:41:10;16.20;99.90
23495;DHT22;26107;50.832;2.950;2022-07-23T00:56:10;16.60;99.90
23495;DHT22;26107;50.832;2.950;2022-07-23T01:11:11;16.20;99.90
23495;DHT22;26107;50.832;2.950;2022-07-23T01:26:12;16.50;99.90
23495;DHT22;26107;50.832;2.950;2022-07-23T01:41:16;16.50;99.90
23495;DHT22;26107;50.832;2.950;2022-07-23T01:56:18;16.60;99.90
23495;DHT22;26107;50.832;2.950;2022-07-23T02:11:21;17.00;99.90
23495;DHT22;26107;50.832;2.950;2022-07-23T02:26:21;17.00;99.90
23495;DHT22;26107;50.832;2.950;2022-07-23T02:41:22;16.80;99.90
23495;DHT22;26107;50.832;2.950;2022-07-23T02:56:22;16.50;99.90
23495;DHT22;26107;50.832;2.950;2022-07-23T03:11:23;17.20;99.90
23495;DHT22;26107;50.832;2.950;2022-07-23T03:26:23;17.40;99.90
23495;DHT22;26107;50.832;2.950;2022-07-23T03:41:25;16.50;99.90
23495;DHT22;26107;50.832;2.950;2022-07-23T03:56:26;17.20;99.90
23495;DHT22;26107;50.832;2.950;2022-07-23T04:11:26;17.50;99.90
23495;DHT22;26107;50.832;2.950;2022-07-23T04:26:27;16.80;99.90
23495;DHT22;26107;50.832;2.950;2022-07-23T04:41:27;16.80;99.90
23495;DHT22;26107;50.832;2.950;2022-07-23T04:56:27;17.20;99.90
23495;DHT22;26107;50.832;2.950;2022-07-23T05:11:28;16.30;99.90
23495;DHT22;26107;50.832;2.950;2022-07-23T05:26:28;16.70;99.90
23495;DHT22;26107;50.832;2.950;2022-07-23T05:41:29;16.80;99.90
23495;DHT22;26107;50.832;2.950;2022-07-23T05:56:29;17.90;99.90
23495;DHT22;26107;50.832;2.950;2022-07-23T06:11:30;18.20;99.90
23495;DHT22;26107;50.832;2.950;2022-07-23T06:26:30;17.90;99.90
23495;DHT22;26107;50.832;2.950;2022-07-23T06:41:31;18.30;99.90
23495;DHT22;26107;50.832;2.950;2022-07-23T06:56:31;18.50;99.90
23495;DHT22;26107;50.832;2.950;2022-07-23T07:11:32;18.90;99.90
23495;DHT22;26107;50.832;2.950;2022-07-23T07:26:32;19.10;99.90
23495;DHT22;26107;50.832;2.950;2022-07-23T07:41:33;19.60;99.90
23495;DHT22;26107;50.832;2.950;2022-07-23T07:56:33;19.10;99.90
23495;DHT22;26107;50.832;2.950;2022-07-23T08:11:34;19.10;99.90
23495;DHT22;26107;50.832;2.950;2022-07-23T08:26:34;19.60;99.90
23495;DHT22;26107;50.832;2.950;2022-07-23T08:41:34;19.80;99.90
23495;DHT22;26107;50.832;2.950;2022-07-23T08:56:35;20.10;99.90
23495;DHT22;26107;50.832;2.950;2022-07-23T09:11:36;20.80;99.90
23495;DHT22;26107;50.832;2.950;2022-07-23T09:26:40;21.00;99.90
23495;DHT22;26107;50.832;2.950;2022-07-23T09:41:45;21.10;99.90
23495;DHT22;26107;50.832;2.950;2022-07-23T09:56:45;21.50;99.90
23495;DHT22;26107;50.832;2.950;2022-07-23T10:11:47;22.10;99.90
23495;DHT22;26107;50.832;2.950;2022-07-23T10:26:55;21.50;99.90
23495;DHT22;26107;50.832;2.950;2022-07-23T10:42:13;21.70;99.90
23495;DHT22;26107;50.832;2.950;2022-07-23T10:57:15;22.30;99.90
23495;DHT22;26107;50.832;2.950;2022-07-23T11:27:38;22.80;99.90
23495;DHT22;26107;50.832;2.950;2022-07-23T11:42:40;23.40;99.90
23495;DHT22;26107;50.832;2.950;2022-07-23T11:57:52;23.60;99.90
23495;DHT22;26107;50.832;2.950;2022-07-23T12:12:54;24.10;99.90
23495;DHT22;26107;50.832;2.950;2022-07-23T12:28:02;24.10;99.90
23495;DHT22;26107;50.832;2.950;2022-07-23T12:43:05;24.20;99.90
23495;DHT22;26107;50.832;2.950;2022-07-23T12:58:07;25.10;99.00
23495;DHT22;26107;50.832;2.950;2022-07-23T13:13:11;25.40;98.50
23495;DHT22;26107;50.832;2.950;2022-07-23T13:28:12;25.20;98.60
23495;DHT22;26107;50.832;2.950;2022-07-23T13:43:14;25.40;97.60
23495;DHT22;26107;50.832;2.950;2022-07-23T13:58:15;25.90;96.90
23495;DHT22;26107;50.832;2.950;2022-07-23T14:13:16;26.00;96.10
23495;DHT22;26107;50.832;2.950;2022-07-23T14:28:16;26.40;95.40
23495;DHT22;26107;50.832;2.950;2022-07-23T14:43:17;26.20;95.60
23495;DHT22;26107;50.832;2.950;2022-07-23T14:58:17;26.70;93.60
23495;DHT22;26107;50.832;2.950;2022-07-23T15:13:18;26.20;94.40
23495;DHT22;26107;50.832;2.950;2022-07-23T15:28:18;26.70;94.50
23495;DHT22;26107;50.832;2.950;2022-07-23T15:43:19;27.30;95.50
23495;DHT22;26107;50.832;2.950;2022-07-23T15:58:19;28.60;94.80
23495;DHT22;26107;50.832;2.950;2022-07-23T16:13:20;28.40;94.90
23495;DHT22;26107;50.832;2.950;2022-07-23T16:28:20;29.80;93.40
23495;DHT22;26107;50.832;2.950;2022-07-23T16:43:21;32.50;90.30
23495;DHT22;26107;50.832;2.950;2022-07-23T16:58:22;34.40;85.50
23495;DHT22;26107;50.832;2.950;2022-07-23T17:13:22;33.80;80.70
23495;DHT22;26107;50.832;2.950;2022-07-23T17:28:23;33.60;81.40
23495;DHT22;26107;50.832;2.950;2022-07-23T17:43:24;36.90;74.20
23495;DHT22;26107;50.832;2.950;2022-07-23T17:58:24;39.90;66.90
23495;DHT22;26107;50.832;2.950;2022-07-23T18:13:25;37.70;66.10
23495;DHT22;26107;50.832;2.950;2022-07-23T18:28:25;35.70;68.10
23495;DHT22;26107;50.832;2.950;2022-07-23T18:43:26;33.50;71.10
23495;DHT22;26107;50.832;2.950;2022-07-23T18:58:26;30.90;76.10
23495;DHT22;26107;50.832;2.950;2022-07-23T19:13:27;29.10;80.60
23495;DHT22;26107;50.832;2.950;2022-07-23T19:28:27;27.70;83.80
23495;DHT22;26107;50.832;2.950;2022-07-23T19:43:28;26.90;87.00
23495;DHT22;26107;50.832;2.950;2022-07-23T19:58:28;25.00;92.40
23495;DHT22;26107;50.832;2.950;2022-07-23T20:13:29;23.50;95.30
23495;DHT22;26107;50.832;2.950;2022-07-23T20:28:29;23.50;97.10
23495;DHT22;26107;50.832;2.950;2022-07-23T20:43:30;22.40;99.90
23495;DHT22;26107;50.832;2.950;2022-07-23T20:58:30;22.80;99.80
23495;DHT22;26107;50.832;2.950;2022-07-23T21:13:31;21.80;99.90
23495;DHT22;26107;50.832;2.950;2022-07-23T21:28:32;21.40;99.90
23495;DHT22;26107;50.832;2.950;2022-07-23T21:43:32;21.00;99.90
23495;DHT22;26107;50.832;2.950;2022-07-23T21:58:33;20.80;99.90
23495;DHT22;26107;50.832;2.950;2022-07-23T22:13:33;20.80;99.90
23495;DHT22;26107;50.832;2.950;2022-07-23T22:28:34;20.40;99.90
23495;DHT22;26107;50.832;2.950;2022-07-23T22:43:34;20.30;99.90
23495;DHT22;26107;50.832;2.950;2022-07-23T22:58:35;20.00;99.90
23495;DHT22;26107;50.832;2.950;2022-07-23T23:13:36;20.00;99.90
23495;DHT22;26107;50.832;2.950;2022-07-23T23:28:36;19.80;99.90
23495;DHT22;26107;50.832;2.950;2022-07-23T23:43:37;19.80;99.90
23495;DHT22;26107;50.832;2.950;2022-07-23T23:58:37;19.50;99.90
